sensor_id;sensor_type;location;lat;lon;timestamp;pressure;altitude;pressure_sealevel;temperature;humidity
35892;BME280;21993;42.672;23.296;2024-02-14T00:01:16;94434.63;;;8.27;65.90
35892;BME280;21993;42.672;23.296;2024-02-14T00:03:43;94432.72;;;8.29;65.67
35892;BME280;21993;42.672;23.296;2024-02-14T00:06:09;94440.44;;;8.30;65.88
35892;BME280;21993;42.672;23.296;2024-02-14T00:08:37;94447.94;;;8.24;65.57
35892;BME280;21993;42.672;23.296;2024-02-14T00:11:03;94442.03;;;8.22;66.25
35892;BME280;21993;42.672;23.296;2024-02-14T00:13:28;94454.41;;;8.19;65.84
35892;BME280;21993;42.672;23.296;2024-02-14T00:15:54;94455.56;;;8.27;66.78
35892;BME280;21993;42.672;23.296;2024-02-14T00:18:22;94455.56;;;8.27;65.90
35892;BME280;21993;42.672;23.296;2024-02-14T00:20:48;94451.66;;;8.21;65.69
35892;BME280;21993;42.672;23.296;2024-02-14T00:23:13;94464.97;;;7.97;67.03
35892;BME280;21993;42.672;23.296;2024-02-14T00:25:39;94465.03;;;8.07;66.81
35892;BME280;21993;42.672;23.296;2024-02-14T00:28:05;94455.16;;;8.10;66.93
35892;BME280;21993;42.672;23.296;2024-02-14T00:30:31;94467.09;;;8.24;66.36
35892;BME280;21993;42.672;23.296;2024-02-14T00:32:56;94461.22;;;8.32;65.92
35892;BME280;21993;42.672;23.296;2024-02-14T00:35:22;94476.81;;;8.33;65.87
35892;BME280;21993;42.672;23.296;2024-02-14T00:37:48;94471.47;;;8.24;65.83
35892;BME280;21993;42.672;23.296;2024-02-14T00:40:13;94476.78;;;8.12;65.81
35892;BME280;21993;42.672;23.296;2024-02-14T00:42:39;94470.34;;;8.16;65.11
35892;BME280;21993;42.672;23.296;2024-02-14T00:45:06;94458.03;;;8.07;66.89
35892;BME280;21993;42.672;23.296;2024-02-14T00:47:34;94459.31;;;8.13;67.04
35892;BME280;21993;42.672;23.296;2024-02-14T00:50:00;94465.13;;;8.16;65.89
35892;BME280;21993;42.672;23.296;2024-02-14T00:52:25;94466.50;;;8.21;66.82
35892;BME280;21993;42.672;23.296;2024-02-14T00:54:51;94469.25;;;8.19;66.07
35892;BME280;21993;42.672;23.296;2024-02-14T00:57:16;94476.47;;;8.27;66.25
35892;BME280;21993;42.672;23.296;2024-02-14T00:59:43;94466.97;;;8.26;66.21
35892;BME280;21993;42.672;23.296;2024-02-14T01:02:08;94463.22;;;8.18;65.79
35892;BME280;21993;42.672;23.296;2024-02-14T01:04:34;94475.00;;;8.13;66.20
35892;BME280;21993;42.672;23.296;2024-02-14T01:07:02;94469.47;;;8.27;66.18
35892;BME280;21993;42.672;23.296;2024-02-14T01:09:28;94466.00;;;8.27;65.99
35892;BME280;21993;42.672;23.296;2024-02-14T01:11:53;94472.75;;;8.29;65.19
35892;BME280;21993;42.672;23.296;2024-02-14T01:14:19;94472.06;;;8.27;65.74
35892;BME280;21993;42.672;23.296;2024-02-14T01:16:45;94479.09;;;8.27;65.41
35892;BME280;21993;42.672;23.296;2024-02-14T01:19:11;94469.25;;;8.19;65.68
35892;BME280;21993;42.672;23.296;2024-02-14T01:21:37;94471.63;;;8.22;65.59
35892;BME280;21993;42.672;23.296;2024-02-14T01:24:03;94464.22;;;8.27;65.92
35892;BME280;21993;42.672;23.296;2024-02-14T01:26:31;94472.91;;;8.28;65.62
35892;BME280;21993;42.672;23.296;2024-02-14T01:28:57;94467.16;;;8.34;65.60
35892;BME280;21993;42.672;23.296;2024-02-14T01:31:25;94461.97;;;8.23;65.48
35892;BME280;21993;42.672;23.296;2024-02-14T01:33:51;94462.31;;;8.29;64.88
35892;BME280;21993;42.672;23.296;2024-02-14T01:36:16;94466.16;;;8.25;64.73
35892;BME280;21993;42.672;23.296;2024-02-14T01:38:42;94465.06;;;8.28;64.93
35892;BME280;21993;42.672;23.296;2024-02-14T01:41:08;94468.03;;;8.02;65.71
35892;BME280;21993;42.672;23.296;2024-02-14T01:43:33;94465.78;;;7.98;66.08
35892;BME280;21993;42.672;23.296;2024-02-14T01:46:07;94464.84;;;7.99;65.67
35892;BME280;21993;42.672;23.296;2024-02-14T01:48:36;94467.09;;;8.03;65.55
35892;BME280;21993;42.672;23.296;2024-02-14T01:51:03;94468.38;;;8.09;65.59
35892;BME280;21993;42.672;23.296;2024-02-14T01:53:30;94472.25;;;8.14;65.35
35892;BME280;21993;42.672;23.296;2024-02-14T01:55:57;94466.78;;;8.17;64.97
35892;BME280;21993;42.672;23.296;2024-02-14T01:58:24;94474.44;;;8.09;65.81
35892;BME280;21993;42.672;23.296;2024-02-14T02:00:51;94465.94;;;8.17;66.12
35892;BME280;21993;42.672;23.296;2024-02-14T02:03:21;94469.41;;;8.17;66.64
35892;BME280;21993;42.672;23.296;2024-02-14T02:05:48;94474.84;;;8.14;67.40
35892;BME280;21993;42.672;23.296;2024-02-14T02:08:14;94471.75;;;8.21;65.91
35892;BME280;21993;42.672;23.296;2024-02-14T02:10:40;94470.41;;;8.26;66.82
35892;BME280;21993;42.672;23.296;2024-02-14T02:13:05;94466.78;;;8.17;65.76
35892;BME280;21993;42.672;23.296;2024-02-14T02:15:31;94470.03;;;8.10;66.75
35892;BME280;21993;42.672;23.296;2024-02-14T02:17:57;94474.75;;;8.16;67.00
35892;BME280;21993;42.672;23.296;2024-02-14T02:20:22;94481.44;;;8.09;66.61
35892;BME280;21993;42.672;23.296;2024-02-14T02:22:48;94482.69;;;8.14;66.25
35892;BME280;21993;42.672;23.296;2024-02-14T02:25:14;94479.06;;;8.06;66.58
35892;BME280;21993;42.672;23.296;2024-02-14T02:27:39;94475.13;;;8.11;65.93
35892;BME280;21993;42.672;23.296;2024-02-14T02:30:06;94485.41;;;8.24;65.55
35892;BME280;21993;42.672;23.296;2024-02-14T02:32:32;94480.88;;;8.26;66.50
35892;BME280;21993;42.672;23.296;2024-02-14T02:34:58;94477.59;;;8.13;66.57
35892;BME280;21993;42.672;23.296;2024-02-14T02:37:25;94481.88;;;8.14;66.06
35892;BME280;21993;42.672;23.296;2024-02-14T02:39:51;94490.31;;;8.17;66.18
35892;BME280;21993;42.672;23.296;2024-02-14T02:42:17;94483.63;;;8.25;66.08
35892;BME280;21993;42.672;23.296;2024-02-14T02:44:46;94493.25;;;8.24;64.69
35892;BME280;21993;42.672;23.296;2024-02-14T02:47:11;94497.41;;;8.27;66.31
35892;BME280;21993;42.672;23.296;2024-02-14T02:49:38;94493.63;;;8.19;64.79
35892;BME280;21993;42.672;23.296;2024-02-14T02:52:03;94507.19;;;8.13;64.05
35892;BME280;21993;42.672;23.296;2024-02-14T02:54:29;94503.19;;;8.09;65.45
35892;BME280;21993;42.672;23.296;2024-02-14T02:56:54;94510.75;;;8.12;64.22
35892;BME280;21993;42.672;23.296;2024-02-14T02:59:20;94501.88;;;8.04;64.79
35892;BME280;21993;42.672;23.296;2024-02-14T03:01:47;94518.53;;;8.03;65.51
35892;BME280;21993;42.672;23.296;2024-02-14T03:04:15;94509.03;;;8.02;64.74
35892;BME280;21993;42.672;23.296;2024-02-14T03:06:40;94515.44;;;7.98;64.36
35892;BME280;21993;42.672;23.296;2024-02-14T03:09:05;94521.41;;;8.00;64.60
35892;BME280;21993;42.672;23.296;2024-02-14T03:11:32;94514.88;;;7.94;64.66
35892;BME280;21993;42.672;23.296;2024-02-14T03:13:58;94512.06;;;7.86;64.44
35892;BME280;21993;42.672;23.296;2024-02-14T03:16:23;94515.84;;;7.93;65.43
35892;BME280;21993;42.672;23.296;2024-02-14T03:18:50;94527.94;;;7.94;65.15
35892;BME280;21993;42.672;23.296;2024-02-14T03:21:15;94526.03;;;7.96;64.47
35892;BME280;21993;42.672;23.296;2024-02-14T03:23:40;94527.69;;;7.97;64.29
35892;BME280;21993;42.672;23.296;2024-02-14T03:26:06;94533.88;;;7.96;64.65
35892;BME280;21993;42.672;23.296;2024-02-14T03:28:34;94543.16;;;7.89;64.50
35892;BME280;21993;42.672;23.296;2024-02-14T03:30:59;94543.41;;;7.86;65.05
35892;BME280;21993;42.672;23.296;2024-02-14T03:33:25;94552.16;;;7.96;64.54
35892;BME280;21993;42.672;23.296;2024-02-14T03:35:50;94556.09;;;8.02;63.35
35892;BME280;21993;42.672;23.296;2024-02-14T03:38:26;94555.81;;;8.05;63.93
35892;BME280;21993;42.672;23.296;2024-02-14T03:40:51;94559.34;;;8.15;63.22
35892;BME280;21993;42.672;23.296;2024-02-14T03:43:17;94562.72;;;8.06;63.56
35892;BME280;21993;42.672;23.296;2024-02-14T03:45:42;94557.66;;;7.93;64.06
35892;BME280;21993;42.672;23.296;2024-02-14T03:48:08;94560.63;;;7.88;63.99
35892;BME280;21993;42.672;23.296;2024-02-14T03:50:38;94565.50;;;7.93;63.40
35892;BME280;21993;42.672;23.296;2024-02-14T03:53:03;94561.53;;;7.99;63.12
35892;BME280;21993;42.672;23.296;2024-02-14T03:55:29;94568.75;;;8.06;63.57
35892;BME280;21993;42.672;23.296;2024-02-14T03:57:55;94567.09;;;8.05;63.01
35892;BME280;21993;42.672;23.296;2024-02-14T04:00:21;94564.28;;;7.97;63.32
35892;BME280;21993;42.672;23.296;2024-02-14T04:02:47;94560.50;;;7.90;63.09
35892;BME280;21993;42.672;23.296;2024-02-14T04:05:14;94567.84;;;7.96;63.11
35892;BME280;21993;42.672;23.296;2024-02-14T04:07:40;94570.44;;;8.07;63.83
35892;BME280;21993;42.672;23.296;2024-02-14T04:10:06;94567.94;;;8.06;62.80
35892;BME280;21993;42.672;23.296;2024-02-14T04:12:32;94567.09;;;8.05;62.84
35892;BME280;21993;42.672;23.296;2024-02-14T04:14:58;94566.06;;;8.08;63.68
35892;BME280;21993;42.672;23.296;2024-02-14T04:17:23;94580.78;;;7.98;62.58
35892;BME280;21993;42.672;23.296;2024-02-14T04:19:50;94574.94;;;8.05;62.87
35892;BME280;21993;42.672;23.296;2024-02-14T04:22:15;94581.97;;;8.05;63.05
35892;BME280;21993;42.672;23.296;2024-02-14T04:24:41;94579.13;;;8.08;63.29
35892;BME280;21993;42.672;23.296;2024-02-14T04:27:07;94591.97;;;7.88;62.89
35892;BME280;21993;42.672;23.296;2024-02-14T04:29:32;94594.69;;;7.98;62.46
35892;BME280;21993;42.672;23.296;2024-02-14T04:32:02;94593.38;;;8.04;63.25
35892;BME280;21993;42.672;23.296;2024-02-14T04:34:28;94595.19;;;7.92;63.63
35892;BME280;21993;42.672;23.296;2024-02-14T04:36:55;94595.50;;;7.99;63.39
35892;BME280;21993;42.672;23.296;2024-02-14T04:39:21;94595.78;;;7.96;63.12
35892;BME280;21993;42.672;23.296;2024-02-14T04:41:47;94596.38;;;7.88;63.55
35892;BME280;21993;42.672;23.296;2024-02-14T04:44:12;94602.00;;;7.83;63.67
35892;BME280;21993;42.672;23.296;2024-02-14T04:46:38;94608.97;;;7.94;64.22
35892;BME280;21993;42.672;23.296;2024-02-14T04:49:09;94601.13;;;7.94;63.92
35892;BME280;21993;42.672;23.296;2024-02-14T04:51:34;94607.06;;;7.96;63.18
35892;BME280;21993;42.672;23.296;2024-02-14T04:54:00;94613.59;;;8.02;63.29
35892;BME280;21993;42.672;23.296;2024-02-14T04:56:26;94616.44;;;7.99;63.67
35892;BME280;21993;42.672;23.296;2024-02-14T04:58:53;94618.13;;;8.00;63.78
35892;BME280;21993;42.672;23.296;2024-02-14T05:01:18;94622.16;;;7.81;64.43
35892;BME280;21993;42.672;23.296;2024-02-14T05:03:44;94618.63;;;7.71;63.55
35892;BME280;21993;42.672;23.296;2024-02-14T05:06:09;94623.72;;;7.73;64.73
35892;BME280;21993;42.672;23.296;2024-02-14T05:08:35;94628.25;;;7.82;64.10
35892;BME280;21993;42.672;23.296;2024-02-14T05:11:00;94632.75;;;7.80;64.02
35892;BME280;21993;42.672;23.296;2024-02-14T05:13:26;94629.41;;;7.89;63.39
35892;BME280;21993;42.672;23.296;2024-02-14T05:15:52;94631.06;;;7.90;63.48
35892;BME280;21993;42.672;23.296;2024-02-14T05:18:17;94634.16;;;7.95;63.92
35892;BME280;21993;42.672;23.296;2024-02-14T05:20:43;94646.38;;;7.95;63.97
35892;BME280;21993;42.672;23.296;2024-02-14T05:23:08;94651.00;;;8.02;63.05
35892;BME280;21993;42.672;23.296;2024-02-14T05:25:35;94653.97;;;7.98;63.55
35892;BME280;21993;42.672;23.296;2024-02-14T05:28:01;94658.88;;;7.80;63.42
35892;BME280;21993;42.672;23.296;2024-02-14T05:30:26;94657.44;;;7.87;63.41
35892;BME280;21993;42.672;23.296;2024-02-14T05:32:52;94659.69;;;7.80;63.60
35892;BME280;21993;42.672;23.296;2024-02-14T05:35:18;94662.41;;;7.90;63.85
35892;BME280;21993;42.672;23.296;2024-02-14T05:37:43;94676.22;;;7.92;63.08
35892;BME280;21993;42.672;23.296;2024-02-14T05:40:09;94674.78;;;7.88;63.34
35892;BME280;21993;42.672;23.296;2024-02-14T05:42:34;94685.13;;;7.78;62.99
35892;BME280;21993;42.672;23.296;2024-02-14T05:45:01;94677.88;;;7.71;63.83
35892;BME280;21993;42.672;23.296;2024-02-14T05:47:28;94687.72;;;7.78;63.15
35892;BME280;21993;42.672;23.296;2024-02-14T05:49:55;94696.88;;;7.84;63.60
35892;BME280;21993;42.672;23.296;2024-02-14T05:52:20;94696.28;;;7.92;62.84
35892;BME280;21993;42.672;23.296;2024-02-14T05:54:47;94689.63;;;7.87;63.45
35892;BME280;21993;42.672;23.296;2024-02-14T05:57:12;94700.22;;;7.86;62.46
35892;BME280;21993;42.672;23.296;2024-02-14T05:59:38;94698.56;;;7.85;62.93
35892;BME280;21993;42.672;23.296;2024-02-14T06:02:03;94705.91;;;7.91;62.01
35892;BME280;21993;42.672;23.296;2024-02-14T06:04:32;94716.84;;;7.85;62.10
35892;BME280;21993;42.672;23.296;2024-02-14T06:06:58;94706.72;;;7.80;62.41
35892;BME280;21993;42.672;23.296;2024-02-14T06:09:23;94715.41;;;7.81;62.27
35892;BME280;21993;42.672;23.296;2024-02-14T06:11:50;94724.81;;;7.83;61.67
35892;BME280;21993;42.672;23.296;2024-02-14T06:14:15;94725.63;;;7.84;62.66
35892;BME280;21993;42.672;23.296;2024-02-14T06:16:41;94722.78;;;7.76;61.98
35892;BME280;21993;42.672;23.296;2024-02-14T06:19:06;94728.25;;;7.84;61.88
35892;BME280;21993;42.672;23.296;2024-02-14T06:21:32;94728.72;;;7.78;62.59
35892;BME280;21993;42.672;23.296;2024-02-14T06:23:58;94733.34;;;7.74;62.12
35892;BME280;21993;42.672;23.296;2024-02-14T06:26:25;94734.19;;;7.75;62.68
35892;BME280;21993;42.672;23.296;2024-02-14T06:28:51;94735.13;;;7.74;62.23
35892;BME280;21993;42.672;23.296;2024-02-14T06:31:20;94739.28;;;7.76;61.28
35892;BME280;21993;42.672;23.296;2024-02-14T06:33:46;94744.16;;;7.81;61.63
35892;BME280;21993;42.672;23.296;2024-02-14T06:36:12;94741.53;;;7.70;61.37
35892;BME280;21993;42.672;23.296;2024-02-14T06:38:37;94736.69;;;7.76;62.29
35892;BME280;21993;42.672;23.296;2024-02-14T06:41:03;94748.03;;;7.64;61.43
35892;BME280;21993;42.672;23.296;2024-02-14T06:43:28;94751.41;;;7.66;61.69
35892;BME280;21993;42.672;23.296;2024-02-14T06:45:55;94745.22;;;7.78;61.83
35892;BME280;21993;42.672;23.296;2024-02-14T06:48:21;94760.19;;;7.65;61.32
35892;BME280;21993;42.672;23.296;2024-02-14T06:50:49;94753.44;;;7.74;61.54
35892;BME280;21993;42.672;23.296;2024-02-14T06:53:15;94751.66;;;7.74;60.89
35892;BME280;21993;42.672;23.296;2024-02-14T06:55:40;94764.66;;;7.63;61.48
35892;BME280;21993;42.672;23.296;2024-02-14T06:58:06;94770.16;;;7.60;61.28
35892;BME280;21993;42.672;23.296;2024-02-14T07:00:31;94752.19;;;7.55;60.84
35892;BME280;21993;42.672;23.296;2024-02-14T07:02:57;94776.53;;;7.56;61.59
35892;BME280;21993;42.672;23.296;2024-02-14T07:05:22;94765.28;;;7.67;61.57
35892;BME280;21993;42.672;23.296;2024-02-14T07:07:48;94782.06;;;7.86;61.00
35892;BME280;21993;42.672;23.296;2024-02-14T07:10:13;94783.47;;;7.79;61.06
35892;BME280;21993;42.672;23.296;2024-02-14T07:12:39;94781.56;;;7.70;60.31
35892;BME280;21993;42.672;23.296;2024-02-14T07:15:05;94786.38;;;7.52;61.91
35892;BME280;21993;42.672;23.296;2024-02-14T07:17:31;94787.47;;;7.61;61.32
35892;BME280;21993;42.672;23.296;2024-02-14T07:19:57;94796.13;;;7.50;60.58
35892;BME280;21993;42.672;23.296;2024-02-14T07:22:23;94793.41;;;7.63;60.69
35892;BME280;21993;42.672;23.296;2024-02-14T07:24:48;94794.63;;;7.81;60.64
35892;BME280;21993;42.672;23.296;2024-02-14T07:27:15;94802.81;;;7.77;59.56
35892;BME280;21993;42.672;23.296;2024-02-14T07:29:41;94800.09;;;7.67;59.41
35892;BME280;21993;42.672;23.296;2024-02-14T07:32:07;94791.94;;;7.48;61.07
35892;BME280;21993;42.672;23.296;2024-02-14T07:34:33;94798.03;;;7.59;60.53
35892;BME280;21993;42.672;23.296;2024-02-14T07:36:58;94797.81;;;7.62;59.99
35892;BME280;21993;42.672;23.296;2024-02-14T07:39:24;94804.09;;;7.60;60.12
35892;BME280;21993;42.672;23.296;2024-02-14T07:41:50;94803.03;;;7.62;59.75
35892;BME280;21993;42.672;23.296;2024-02-14T07:44:18;94805.31;;;7.78;59.62
35892;BME280;21993;42.672;23.296;2024-02-14T07:46:44;94798.69;;;7.85;59.60
35892;BME280;21993;42.672;23.296;2024-02-14T07:49:09;94793.00;;;8.03;59.71
35892;BME280;21993;42.672;23.296;2024-02-14T07:51:36;94815.44;;;7.94;59.59
35892;BME280;21993;42.672;23.296;2024-02-14T07:54:05;94800.47;;;7.96;59.15
35892;BME280;21993;42.672;23.296;2024-02-14T07:56:31;94816.53;;;8.03;59.42
35892;BME280;21993;42.672;23.296;2024-02-14T07:58:56;94812.00;;;7.94;59.58
35892;BME280;21993;42.672;23.296;2024-02-14T08:01:22;94823.88;;;7.86;60.66
35892;BME280;21993;42.672;23.296;2024-02-14T08:03:48;94828.13;;;7.87;61.02
35892;BME280;21993;42.672;23.296;2024-02-14T08:06:14;94815.19;;;7.75;61.37
35892;BME280;21993;42.672;23.296;2024-02-14T08:08:39;94816.38;;;7.82;62.06
35892;BME280;21993;42.672;23.296;2024-02-14T08:11:05;94821.13;;;7.88;62.56
35892;BME280;21993;42.672;23.296;2024-02-14T08:13:31;94825.44;;;8.00;61.46
35892;BME280;21993;42.672;23.296;2024-02-14T08:15:57;94821.63;;;7.82;60.97
35892;BME280;21993;42.672;23.296;2024-02-14T08:18:24;94828.50;;;7.83;61.74
35892;BME280;21993;42.672;23.296;2024-02-14T08:20:49;94817.81;;;7.86;61.93
35892;BME280;21993;42.672;23.296;2024-02-14T08:23:15;94829.41;;;7.71;61.23
35892;BME280;21993;42.672;23.296;2024-02-14T08:25:40;94837.25;;;7.71;62.74
35892;BME280;21993;42.672;23.296;2024-02-14T08:28:09;94838.94;;;7.83;61.90
35892;BME280;21993;42.672;23.296;2024-02-14T08:30:35;94840.38;;;7.87;62.50
35892;BME280;21993;42.672;23.296;2024-02-14T08:33:00;94838.69;;;7.75;61.37
35892;BME280;21993;42.672;23.296;2024-02-14T08:35:26;94843.94;;;7.75;62.48
35892;BME280;21993;42.672;23.296;2024-02-14T08:37:51;94831.91;;;7.72;61.12
35892;BME280;21993;42.672;23.296;2024-02-14T08:40:17;94842.63;;;7.45;61.93
35892;BME280;21993;42.672;23.296;2024-02-14T08:42:42;94846.34;;;7.54;61.53
35892;BME280;21993;42.672;23.296;2024-02-14T08:45:08;94849.22;;;7.62;60.40
35892;BME280;21993;42.672;23.296;2024-02-14T08:47:34;94853.75;;;7.71;60.34
35892;BME280;21993;42.672;23.296;2024-02-14T08:49:59;94846.03;;;7.70;60.01
35892;BME280;21993;42.672;23.296;2024-02-14T08:52:25;94856.41;;;7.82;60.33
35892;BME280;21993;42.672;23.296;2024-02-14T08:54:52;94853.81;;;7.82;60.58
35892;BME280;21993;42.672;23.296;2024-02-14T08:57:17;94868.16;;;7.77;59.34
35892;BME280;21993;42.672;23.296;2024-02-14T08:59:44;94871.16;;;7.83;60.33
35892;BME280;21993;42.672;23.296;2024-02-14T09:02:12;94872.69;;;7.86;59.36
35892;BME280;21993;42.672;23.296;2024-02-14T09:04:39;94867.19;;;7.78;59.23
35892;BME280;21993;42.672;23.296;2024-02-14T09:07:05;94870.06;;;7.75;59.55
35892;BME280;21993;42.672;23.296;2024-02-14T09:09:32;94873.00;;;7.70;59.83
35892;BME280;21993;42.672;23.296;2024-02-14T09:11:58;94877.84;;;7.63;59.18
35892;BME280;21993;42.672;23.296;2024-02-14T09:14:28;94877.97;;;7.73;59.40
35892;BME280;21993;42.672;23.296;2024-02-14T09:16:53;94875.00;;;7.67;61.05
35892;BME280;21993;42.672;23.296;2024-02-14T09:19:19;94881.34;;;7.75;60.45
35892;BME280;21993;42.672;23.296;2024-02-14T09:21:44;94876.13;;;7.86;60.55
35892;BME280;21993;42.672;23.296;2024-02-14T09:24:10;94891.47;;;7.56;60.87
35892;BME280;21993;42.672;23.296;2024-02-14T09:26:36;94879.59;;;7.52;60.92
35892;BME280;21993;42.672;23.296;2024-02-14T09:29:03;94887.41;;;7.52;61.39
35892;BME280;21993;42.672;23.296;2024-02-14T09:31:29;94895.28;;;7.63;60.73
35892;BME280;21993;42.672;23.296;2024-02-14T09:33:54;94894.00;;;7.69;61.23
35892;BME280;21993;42.672;23.296;2024-02-14T09:36:22;94889.34;;;7.61;60.93
35892;BME280;21993;42.672;23.296;2024-02-14T09:38:49;94895.25;;;7.52;60.90
35892;BME280;21993;42.672;23.296;2024-02-14T09:41:22;94889.63;;;7.69;60.89
35892;BME280;21993;42.672;23.296;2024-02-14T09:43:48;94882.53;;;7.47;60.98
35892;BME280;21993;42.672;23.296;2024-02-14T09:46:14;94886.97;;;7.58;60.76
35892;BME280;21993;42.672;23.296;2024-02-14T09:48:46;94891.38;;;7.57;60.08
35892;BME280;21993;42.672;23.296;2024-02-14T09:51:13;94899.25;;;7.69;61.16
35892;BME280;21993;42.672;23.296;2024-02-14T09:53:39;94887.34;;;7.65;59.92
35892;BME280;21993;42.672;23.296;2024-02-14T09:56:05;94888.53;;;7.60;60.13
35892;BME280;21993;42.672;23.296;2024-02-14T09:58:32;94876.75;;;7.55;60.80
35892;BME280;21993;42.672;23.296;2024-02-14T10:00:57;94872.53;;;7.65;60.32
35892;BME280;21993;42.672;23.296;2024-02-14T10:03:23;94873.25;;;7.78;59.71
35892;BME280;21993;42.672;23.296;2024-02-14T10:05:49;94866.03;;;7.82;59.50
35892;BME280;21993;42.672;23.296;2024-02-14T10:08:15;94866.25;;;7.79;58.81
35892;BME280;21993;42.672;23.296;2024-02-14T10:10:41;94868.41;;;7.85;59.30
35892;BME280;21993;42.672;23.296;2024-02-14T10:13:07;94878.41;;;7.91;59.26
35892;BME280;21993;42.672;23.296;2024-02-14T10:15:33;94884.06;;;7.74;59.29
35892;BME280;21993;42.672;23.296;2024-02-14T10:17:59;94888.94;;;7.78;59.40
35892;BME280;21993;42.672;23.296;2024-02-14T10:20:26;94868.84;;;7.79;59.68
35892;BME280;21993;42.672;23.296;2024-02-14T10:23:00;94880.25;;;7.67;59.27
35892;BME280;21993;42.672;23.296;2024-02-14T10:25:27;94884.78;;;7.76;59.39
35892;BME280;21993;42.672;23.296;2024-02-14T10:27:53;94884.06;;;7.74;59.22
35892;BME280;21993;42.672;23.296;2024-02-14T10:30:19;94879.31;;;7.79;58.87
35892;BME280;21993;42.672;23.296;2024-02-14T10:32:44;94866.97;;;7.81;59.00
35892;BME280;21993;42.672;23.296;2024-02-14T10:35:13;94876.72;;;7.90;59.14
35892;BME280;21993;42.672;23.296;2024-02-14T10:37:40;94874.09;;;7.90;58.14
35892;BME280;21993;42.672;23.296;2024-02-14T10:40:06;94869.94;;;7.87;59.45
35892;BME280;21993;42.672;23.296;2024-02-14T10:42:33;94869.25;;;7.97;58.45
35892;BME280;21993;42.672;23.296;2024-02-14T10:45:02;94869.28;;;8.08;58.38
35892;BME280;21993;42.672;23.296;2024-02-14T10:47:31;94865.59;;;8.10;57.94
35892;BME280;21993;42.672;23.296;2024-02-14T10:50:02;94873.69;;;8.07;57.78
35892;BME280;21993;42.672;23.296;2024-02-14T10:52:33;94866.69;;;8.19;57.90
35892;BME280;21993;42.672;23.296;2024-02-14T10:55:02;94868.47;;;8.18;57.65
35892;BME280;21993;42.672;23.296;2024-02-14T10:57:28;94866.56;;;8.21;57.46
35892;BME280;21993;42.672;23.296;2024-02-14T10:59:55;94867.63;;;8.18;56.82
35892;BME280;21993;42.672;23.296;2024-02-14T11:02:23;94878.47;;;8.25;57.60
35892;BME280;21993;42.672;23.296;2024-02-14T11:04:49;94876.44;;;8.28;57.30
35892;BME280;21993;42.672;23.296;2024-02-14T11:07:20;94882.72;;;8.14;57.01
35892;BME280;21993;42.672;23.296;2024-02-14T11:10:06;94873.44;;;7.99;57.81
35892;BME280;21993;42.672;23.296;2024-02-14T11:12:36;94882.00;;;8.24;56.97
35892;BME280;21993;42.672;23.296;2024-02-14T11:15:12;94872.16;;;8.27;57.02
35892;BME280;21993;42.672;23.296;2024-02-14T11:17:42;94874.41;;;8.21;57.14
35892;BME280;21993;42.672;23.296;2024-02-14T11:20:13;94878.47;;;8.25;57.49
35892;BME280;21993;42.672;23.296;2024-02-14T11:22:50;94876.31;;;8.18;57.83
35892;BME280;21993;42.672;23.296;2024-02-14T11:25:17;94880.09;;;8.14;57.67
35892;BME280;21993;42.672;23.296;2024-02-14T11:27:46;94880.00;;;8.27;57.97
35892;BME280;21993;42.672;23.296;2024-02-14T11:30:12;94880.66;;;8.42;57.33
35892;BME280;21993;42.672;23.296;2024-02-14T11:32:40;94876.59;;;8.38;57.30
35892;BME280;21993;42.672;23.296;2024-02-14T11:35:11;94875.16;;;8.45;57.83
35892;BME280;21993;42.672;23.296;2024-02-14T11:37:36;94880.75;;;8.40;57.29
35892;BME280;21993;42.672;23.296;2024-02-14T11:40:02;94875.63;;;8.39;57.89
35892;BME280;21993;42.672;23.296;2024-02-14T11:42:27;94875.03;;;8.46;57.37
35892;BME280;21993;42.672;23.296;2024-02-14T11:44:54;94862.44;;;8.40;57.34
35892;BME280;21993;42.672;23.296;2024-02-14T11:47:24;94874.59;;;8.41;57.30
35892;BME280;21993;42.672;23.296;2024-02-14T11:49:50;94875.41;;;8.42;56.71
35892;BME280;21993;42.672;23.296;2024-02-14T11:52:15;94872.63;;;8.32;57.39
35892;BME280;21993;42.672;23.296;2024-02-14T11:54:46;94869.34;;;8.41;57.57
35892;BME280;21993;42.672;23.296;2024-02-14T11:57:17;94863.50;;;8.49;57.17
35892;BME280;21993;42.672;23.296;2024-02-14T11:59:42;94880.28;;;8.46;57.28
35892;BME280;21993;42.672;23.296;2024-02-14T12:02:08;94874.94;;;8.37;56.42
35892;BME280;21993;42.672;23.296;2024-02-14T12:04:33;94878.13;;;8.40;57.48
35892;BME280;21993;42.672;23.296;2024-02-14T12:06:59;94882.44;;;8.41;56.56
35892;BME280;21993;42.672;23.296;2024-02-14T12:09:25;94875.75;;;8.37;56.73
35892;BME280;21993;42.672;23.296;2024-02-14T12:11:50;94876.47;;;8.39;56.06
35892;BME280;21993;42.672;23.296;2024-02-14T12:14:16;94867.06;;;8.26;55.97
35892;BME280;21993;42.672;23.296;2024-02-14T12:16:43;94871.44;;;8.25;56.77
35892;BME280;21993;42.672;23.296;2024-02-14T12:19:14;94867.75;;;8.28;56.12
35892;BME280;21993;42.672;23.296;2024-02-14T12:21:41;94878.22;;;8.28;55.58
35892;BME280;21993;42.672;23.296;2024-02-14T12:24:09;94868.13;;;8.34;56.79
35892;BME280;21993;42.672;23.296;2024-02-14T12:26:36;94867.63;;;8.29;56.85
35892;BME280;21993;42.672;23.296;2024-02-14T12:29:02;94867.28;;;8.34;56.46
35892;BME280;21993;42.672;23.296;2024-02-14T12:31:33;94860.28;;;8.34;56.84
35892;BME280;21993;42.672;23.296;2024-02-14T12:33:59;94859.94;;;8.39;56.52
35892;BME280;21993;42.672;23.296;2024-02-14T12:36:31;94857.19;;;8.40;56.29
35892;BME280;21993;42.672;23.296;2024-02-14T12:38:56;94860.78;;;8.39;56.20
35892;BME280;21993;42.672;23.296;2024-02-14T12:41:23;94858.28;;;8.49;56.80
35892;BME280;21993;42.672;23.296;2024-02-14T12:43:52;94854.81;;;8.49;56.73
35892;BME280;21993;42.672;23.296;2024-02-14T12:46:17;94858.06;;;8.52;55.88
35892;BME280;21993;42.672;23.296;2024-02-14T12:48:43;94862.44;;;8.52;55.89
35892;BME280;21993;42.672;23.296;2024-02-14T12:51:10;94854.47;;;8.53;56.33
35892;BME280;21993;42.672;23.296;2024-02-14T12:53:35;94867.09;;;8.37;56.46
35892;BME280;21993;42.672;23.296;2024-02-14T12:56:01;94860.19;;;8.47;55.66